sensor_id;sensor_type;location;lat;lon;timestamp;P1;durP1;ratioP1;P2;durP2;ratioP2
12597;SDS011;6364;53.590;9.956;2023-05-10T00:00:30;8.30;;;3.65;;
12597;SDS011;6364;53.590;9.956;2023-05-10T00:02:56;5.43;;;3.70;;
12597;SDS011;6364;53.590;9.956;2023-05-10T00:05:21;4.53;;;3.67;;
12597;SDS011;6364;53.590;9.956;2023-05-10T00:07:46;9.02;;;4.28;;
12597;SDS011;6364;53.590;9.956;2023-05-10T00:10:12;7.50;;;4.43;;
12597;SDS011;6364;53.590;9.956;2023-05-10T00:12:37;5.88;;;4.07;;
12597;SDS011;6364;53.590;9.956;2023-05-10T00:15:03;7.65;;;4.30;;
12597;SDS011;6364;53.590;9.956;2023-05-10T00:17:28;7.35;;;4.35;;
12597;SDS011;6364;53.590;9.956;2023-05-10T00:19:54;10.40;;;3.92;;
12597;SDS011;6364;53.590;9.956;2023-05-10T00:22:19;5.93;;;3.65;;
12597;SDS011;6364;53.590;9.956;2023-05-10T00:24:45;6.68;;;3.90;;
12597;SDS011;6364;53.590;9.956;2023-05-10T00:27:10;9.57;;;4.22;;
12597;SDS011;6364;53.590;9.956;2023-05-10T00:29:36;7.55;;;4.10;;
12597;SDS011;6364;53.590;9.956;2023-05-10T00:32:01;8.45;;;4.22;;
12597;SDS011;6364;53.590;9.956;2023-05-10T00:34:26;5.82;;;4.07;;
12597;SDS011;6364;53.590;9.956;2023-05-10T00:36:52;6.85;;;4.18;;
12597;SDS011;6364;53.590;9.956;2023-05-10T00:39:17;7.35;;;4.15;;
12597;SDS011;6364;53.590;9.956;2023-05-10T00:41:42;14.00;;;4.30;;
12597;SDS011;6364;53.590;9.956;2023-05-10T00:44:08;7.32;;;4.22;;
12597;SDS011;6364;53.590;9.956;2023-05-10T00:46:33;6.63;;;3.63;;
12597;SDS011;6364;53.590;9.956;2023-05-10T00:48:58;6.25;;;4.18;;
12597;SDS011;6364;53.590;9.956;2023-05-10T00:51:24;6.40;;;4.25;;
12597;SDS011;6364;53.590;9.956;2023-05-10T00:53:49;10.00;;;4.38;;
12597;SDS011;6364;53.590;9.956;2023-05-10T00:56:15;8.65;;;3.97;;
12597;SDS011;6364;53.590;9.956;2023-05-10T00:58:41;6.25;;;4.25;;
12597;SDS011;6364;53.590;9.956;2023-05-10T01:01:07;7.03;;;4.30;;
12597;SDS011;6364;53.590;9.956;2023-05-10T01:03:34;6.70;;;4.63;;
12597;SDS011;6364;53.590;9.956;2023-05-10T01:06:00;6.78;;;4.40;;
12597;SDS011;6364;53.590;9.956;2023-05-10T01:08:25;8.23;;;4.13;;
12597;SDS011;6364;53.590;9.956;2023-05-10T01:10:51;9.02;;;4.60;;
12597;SDS011;6364;53.590;9.956;2023-05-10T01:13:18;6.90;;;4.63;;
12597;SDS011;6364;53.590;9.956;2023-05-10T01:15:53;7.10;;;4.63;;
12597;SDS011;6364;53.590;9.956;2023-05-10T01:18:19;9.85;;;4.95;;
12597;SDS011;6364;53.590;9.956;2023-05-10T01:20:45;7.20;;;4.70;;
12597;SDS011;6364;53.590;9.956;2023-05-10T01:23:20;7.22;;;5.00;;
12597;SDS011;6364;53.590;9.956;2023-05-10T01:34:02;8.32;;;4.35;;
12597;SDS011;6364;53.590;9.956;2023-05-10T01:36:35;10.68;;;4.50;;
12597;SDS011;6364;53.590;9.956;2023-05-10T01:39:11;4.90;;;3.97;;
12597;SDS011;6364;53.590;9.956;2023-05-10T01:41:45;7.03;;;4.43;;
12597;SDS011;6364;53.590;9.956;2023-05-10T01:46:53;8.35;;;4.20;;
12597;SDS011;6364;53.590;9.956;2023-05-10T01:49:24;7.38;;;4.57;;
12597;SDS011;6364;53.590;9.956;2023-05-10T01:51:52;8.18;;;4.68;;
12597;SDS011;6364;53.590;9.956;2023-05-10T01:54:22;8.77;;;4.57;;
12597;SDS011;6364;53.590;9.956;2023-05-10T01:56:55;9.07;;;5.03;;
12597;SDS011;6364;53.590;9.956;2023-05-10T01:59:22;8.77;;;4.72;;
12597;SDS011;6364;53.590;9.956;2023-05-10T02:01:49;5.80;;;4.55;;
12597;SDS011;6364;53.590;9.956;2023-05-10T02:04:15;8.88;;;4.55;;
12597;SDS011;6364;53.590;9.956;2023-05-10T02:06:42;7.03;;;4.55;;
12597;SDS011;6364;53.590;9.956;2023-05-10T02:09:08;7.30;;;4.35;;
12597;SDS011;6364;53.590;9.956;2023-05-10T02:11:34;6.22;;;5.07;;
12597;SDS011;6364;53.590;9.956;2023-05-10T02:13:59;10.65;;;4.65;;
12597;SDS011;6364;53.590;9.956;2023-05-10T02:16:26;6.82;;;4.95;;
12597;SDS011;6364;53.590;9.956;2023-05-10T02:18:52;5.35;;;4.43;;
12597;SDS011;6364;53.590;9.956;2023-05-10T02:21:18;9.70;;;4.55;;
12597;SDS011;6364;53.590;9.956;2023-05-10T02:23:44;8.98;;;4.63;;
12597;SDS011;6364;53.590;9.956;2023-05-10T02:26:10;16.13;;;4.40;;
12597;SDS011;6364;53.590;9.956;2023-05-10T02:28:36;6.93;;;5.15;;
12597;SDS011;6364;53.590;9.956;2023-05-10T02:31:02;12.43;;;4.65;;
12597;SDS011;6364;53.590;9.956;2023-05-10T02:33:28;8.23;;;4.88;;
12597;SDS011;6364;53.590;9.956;2023-05-10T02:35:54;6.70;;;4.35;;
12597;SDS011;6364;53.590;9.956;2023-05-10T02:38:20;7.95;;;4.30;;
12597;SDS011;6364;53.590;9.956;2023-05-10T02:40:46;6.00;;;4.70;;
12597;SDS011;6364;53.590;9.956;2023-05-10T02:43:12;7.38;;;4.63;;
12597;SDS011;6364;53.590;9.956;2023-05-10T02:45:39;10.48;;;4.88;;
12597;SDS011;6364;53.590;9.956;2023-05-10T02:48:05;5.63;;;4.50;;
12597;SDS011;6364;53.590;9.956;2023-05-10T02:50:32;6.35;;;4.75;;
12597;SDS011;6364;53.590;9.956;2023-05-10T02:53:02;15.10;;;4.95;;
12597;SDS011;6364;53.590;9.956;2023-05-10T02:55:32;10.23;;;4.93;;
12597;SDS011;6364;53.590;9.956;2023-05-10T02:58:01;9.60;;;5.18;;
12597;SDS011;6364;53.590;9.956;2023-05-10T03:00:27;8.38;;;4.82;;
12597;SDS011;6364;53.590;9.956;2023-05-10T03:02:52;5.22;;;4.47;;
12597;SDS011;6364;53.590;9.956;2023-05-10T03:05:18;9.32;;;4.82;;
12597;SDS011;6364;53.590;9.956;2023-05-10T03:07:44;7.43;;;4.38;;
12597;SDS011;6364;53.590;9.956;2023-05-10T03:10:09;8.75;;;4.95;;
12597;SDS011;6364;53.590;9.956;2023-05-10T03:15:22;8.05;;;4.60;;
12597;SDS011;6364;53.590;9.956;2023-05-10T03:18:01;6.13;;;4.60;;
12597;SDS011;6364;53.590;9.956;2023-05-10T03:23:04;6.75;;;5.05;;
12597;SDS011;6364;53.590;9.956;2023-05-10T03:25:33;5.80;;;4.43;;
12597;SDS011;6364;53.590;9.956;2023-05-10T03:28:00;9.63;;;4.97;;
12597;SDS011;6364;53.590;9.956;2023-05-10T03:30:26;8.52;;;4.75;;
12597;SDS011;6364;53.590;9.956;2023-05-10T03:32:51;8.63;;;5.13;;
12597;SDS011;6364;53.590;9.956;2023-05-10T03:35:17;14.15;;;5.07;;
12597;SDS011;6364;53.590;9.956;2023-05-10T03:37:42;11.43;;;4.90;;
12597;SDS011;6364;53.590;9.956;2023-05-10T03:40:08;7.38;;;4.88;;
12597;SDS011;6364;53.590;9.956;2023-05-10T03:42:33;9.80;;;4.95;;
12597;SDS011;6364;53.590;9.956;2023-05-10T03:44:59;9.60;;;4.90;;
12597;SDS011;6364;53.590;9.956;2023-05-10T03:47:24;7.30;;;5.03;;
12597;SDS011;6364;53.590;9.956;2023-05-10T03:49:50;12.40;;;4.70;;
12597;SDS011;6364;53.590;9.956;2023-05-10T03:52:15;9.30;;;5.03;;
12597;SDS011;6364;53.590;9.956;2023-05-10T03:54:42;10.35;;;5.43;;
12597;SDS011;6364;53.590;9.956;2023-05-10T03:57:07;6.53;;;4.80;;
12597;SDS011;6364;53.590;9.956;2023-05-10T03:59:32;9.98;;;5.15;;
12597;SDS011;6364;53.590;9.956;2023-05-10T04:01:57;9.30;;;4.90;;
12597;SDS011;6364;53.590;9.956;2023-05-10T04:04:23;9.70;;;5.18;;
12597;SDS011;6364;53.590;9.956;2023-05-10T04:06:48;6.65;;;4.82;;
12597;SDS011;6364;53.590;9.956;2023-05-10T04:09:14;11.57;;;5.57;;
12597;SDS011;6364;53.590;9.956;2023-05-10T04:11:39;7.85;;;5.18;;
12597;SDS011;6364;53.590;9.956;2023-05-10T04:14:04;8.63;;;5.25;;
12597;SDS011;6364;53.590;9.956;2023-05-10T04:16:30;6.25;;;5.13;;
12597;SDS011;6364;53.590;9.956;2023-05-10T04:18:55;8.38;;;5.50;;
12597;SDS011;6364;53.590;9.956;2023-05-10T04:21:20;7.47;;;5.05;;
12597;SDS011;6364;53.590;9.956;2023-05-10T04:23:46;8.15;;;4.85;;
12597;SDS011;6364;53.590;9.956;2023-05-10T04:26:12;10.25;;;5.35;;
12597;SDS011;6364;53.590;9.956;2023-05-10T04:28:38;9.15;;;5.15;;
12597;SDS011;6364;53.590;9.956;2023-05-10T04:31:05;9.23;;;4.90;;
12597;SDS011;6364;53.590;9.956;2023-05-10T04:33:32;11.10;;;5.60;;
12597;SDS011;6364;53.590;9.956;2023-05-10T04:35:57;7.80;;;5.25;;
12597;SDS011;6364;53.590;9.956;2023-05-10T04:38:23;15.43;;;5.57;;
12597;SDS011;6364;53.590;9.956;2023-05-10T04:40:48;5.60;;;4.90;;
12597;SDS011;6364;53.590;9.956;2023-05-10T04:43:13;6.95;;;4.78;;
12597;SDS011;6364;53.590;9.956;2023-05-10T04:45:39;17.17;;;5.38;;
12597;SDS011;6364;53.590;9.956;2023-05-10T04:48:04;9.38;;;5.10;;
12597;SDS011;6364;53.590;9.956;2023-05-10T04:50:30;10.57;;;5.10;;
12597;SDS011;6364;53.590;9.956;2023-05-10T04:52:55;8.38;;;4.78;;
12597;SDS011;6364;53.590;9.956;2023-05-10T04:55:21;10.10;;;5.57;;
12597;SDS011;6364;53.590;9.956;2023-05-10T04:57:46;7.13;;;4.80;;
12597;SDS011;6364;53.590;9.956;2023-05-10T05:00:11;12.63;;;5.55;;
12597;SDS011;6364;53.590;9.956;2023-05-10T05:02:37;8.63;;;5.28;;
12597;SDS011;6364;53.590;9.956;2023-05-10T05:05:02;7.95;;;5.32;;
12597;SDS011;6364;53.590;9.956;2023-05-10T05:07:27;7.20;;;5.00;;
12597;SDS011;6364;53.590;9.956;2023-05-10T05:09:53;11.48;;;5.32;;
12597;SDS011;6364;53.590;9.956;2023-05-10T05:12:18;9.13;;;4.80;;
12597;SDS011;6364;53.590;9.956;2023-05-10T05:14:43;11.15;;;4.95;;
12597;SDS011;6364;53.590;9.956;2023-05-10T05:17:09;15.45;;;5.38;;
12597;SDS011;6364;53.590;9.956;2023-05-10T05:19:34;7.57;;;4.90;;
12597;SDS011;6364;53.590;9.956;2023-05-10T05:22:00;9.15;;;5.00;;
12597;SDS011;6364;53.590;9.956;2023-05-10T05:24:25;8.13;;;5.28;;
12597;SDS011;6364;53.590;9.956;2023-05-10T05:26:51;7.65;;;5.55;;
12597;SDS011;6364;53.590;9.956;2023-05-10T05:29:16;9.52;;;5.18;;
12597;SDS011;6364;53.590;9.956;2023-05-10T05:31:41;8.20;;;4.97;;
12597;SDS011;6364;53.590;9.956;2023-05-10T05:34:07;10.85;;;5.38;;
12597;SDS011;6364;53.590;9.956;2023-05-10T05:36:32;11.52;;;4.72;;
12597;SDS011;6364;53.590;9.956;2023-05-10T05:38:57;9.25;;;5.30;;
12597;SDS011;6364;53.590;9.956;2023-05-10T05:41:23;10.85;;;5.63;;
12597;SDS011;6364;53.590;9.956;2023-05-10T05:43:49;7.82;;;5.15;;
12597;SDS011;6364;53.590;9.956;2023-05-10T05:46:14;6.15;;;4.90;;
12597;SDS011;6364;53.590;9.956;2023-05-10T05:48:40;7.03;;;5.13;;
12597;SDS011;6364;53.590;9.956;2023-05-10T05:51:05;8.50;;;5.25;;
12597;SDS011;6364;53.590;9.956;2023-05-10T05:53:30;7.15;;;4.90;;
12597;SDS011;6364;53.590;9.956;2023-05-10T05:55:57;8.52;;;5.20;;
12597;SDS011;6364;53.590;9.956;2023-05-10T05:58:23;12.27;;;5.47;;
12597;SDS011;6364;53.590;9.956;2023-05-10T06:00:48;6.95;;;5.43;;
12597;SDS011;6364;53.590;9.956;2023-05-10T06:03:14;10.10;;;5.20;;
12597;SDS011;6364;53.590;9.956;2023-05-10T06:05:39;7.28;;;5.10;;
12597;SDS011;6364;53.590;9.956;2023-05-10T06:08:04;10.38;;;5.40;;
12597;SDS011;6364;53.590;9.956;2023-05-10T06:10:30;14.73;;;5.32;;
12597;SDS011;6364;53.590;9.956;2023-05-10T06:12:55;6.53;;;5.35;;
12597;SDS011;6364;53.590;9.956;2023-05-10T06:15:21;8.23;;;5.03;;
12597;SDS011;6364;53.590;9.956;2023-05-10T06:17:46;9.45;;;5.30;;
12597;SDS011;6364;53.590;9.956;2023-05-10T06:20:14;9.63;;;5.05;;
12597;SDS011;6364;53.590;9.956;2023-05-10T06:22:39;8.80;;;5.03;;
12597;SDS011;6364;53.590;9.956;2023-05-10T06:25:05;10.40;;;4.78;;
12597;SDS011;6364;53.590;9.956;2023-05-10T06:27:30;11.27;;;5.53;;
12597;SDS011;6364;53.590;9.956;2023-05-10T06:29:55;12.40;;;5.50;;
12597;SDS011;6364;53.590;9.956;2023-05-10T06:32:21;8.57;;;5.68;;
12597;SDS011;6364;53.590;9.956;2023-05-10T06:34:46;7.00;;;5.40;;
12597;SDS011;6364;53.590;9.956;2023-05-10T06:37:12;10.93;;;5.47;;
12597;SDS011;6364;53.590;9.956;2023-05-10T06:39:37;8.98;;;4.82;;
12597;SDS011;6364;53.590;9.956;2023-05-10T06:42:02;8.23;;;5.00;;
12597;SDS011;6364;53.590;9.956;2023-05-10T06:44:29;7.07;;;5.15;;
12597;SDS011;6364;53.590;9.956;2023-05-10T06:46:55;6.90;;;5.28;;
12597;SDS011;6364;53.590;9.956;2023-05-10T06:49:20;9.65;;;5.15;;
12597;SDS011;6364;53.590;9.956;2023-05-10T06:51:46;9.02;;;5.03;;
12597;SDS011;6364;53.590;9.956;2023-05-10T06:54:11;7.10;;;4.90;;
12597;SDS011;6364;53.590;9.956;2023-05-10T06:56:36;11.73;;;5.20;;
12597;SDS011;6364;53.590;9.956;2023-05-10T06:59:02;12.25;;;5.60;;
12597;SDS011;6364;53.590;9.956;2023-05-10T07:01:27;10.88;;;5.50;;
12597;SDS011;6364;53.590;9.956;2023-05-10T07:03:53;10.20;;;5.72;;
12597;SDS011;6364;53.590;9.956;2023-05-10T07:06:18;10.30;;;5.47;;
12597;SDS011;6364;53.590;9.956;2023-05-10T07:08:43;6.95;;;5.53;;
12597;SDS011;6364;53.590;9.956;2023-05-10T07:11:09;14.25;;;5.60;;
12597;SDS011;6364;53.590;9.956;2023-05-10T07:13:35;9.85;;;5.40;;
12597;SDS011;6364;53.590;9.956;2023-05-10T07:16:01;7.95;;;5.00;;
12597;SDS011;6364;53.590;9.956;2023-05-10T07:18:27;8.02;;;5.15;;
12597;SDS011;6364;53.590;9.956;2023-05-10T07:20:52;10.20;;;5.30;;
12597;SDS011;6364;53.590;9.956;2023-05-10T07:23:17;10.93;;;5.63;;
12597;SDS011;6364;53.590;9.956;2023-05-10T07:25:47;8.63;;;5.30;;
12597;SDS011;6364;53.590;9.956;2023-05-10T07:28:13;8.45;;;5.43;;
12597;SDS011;6364;53.590;9.956;2023-05-10T07:30:39;8.80;;;5.22;;
12597;SDS011;6364;53.590;9.956;2023-05-10T07:33:04;8.38;;;5.65;;
12597;SDS011;6364;53.590;9.956;2023-05-10T07:35:29;7.68;;;5.20;;
12597;SDS011;6364;53.590;9.956;2023-05-10T07:37:55;8.15;;;5.68;;
12597;SDS011;6364;53.590;9.956;2023-05-10T07:40:20;9.02;;;5.53;;
12597;SDS011;6364;53.590;9.956;2023-05-10T07:42:45;9.32;;;5.95;;
12597;SDS011;6364;53.590;9.956;2023-05-10T07:45:11;10.25;;;5.30;;
12597;SDS011;6364;53.590;9.956;2023-05-10T07:47:36;7.72;;;5.18;;
12597;SDS011;6364;53.590;9.956;2023-05-10T07:50:01;7.97;;;5.55;;
12597;SDS011;6364;53.590;9.956;2023-05-10T07:52:27;11.73;;;5.65;;
12597;SDS011;6364;53.590;9.956;2023-05-10T07:54:52;8.95;;;6.00;;
12597;SDS011;6364;53.590;9.956;2023-05-10T07:57:18;11.13;;;5.40;;
12597;SDS011;6364;53.590;9.956;2023-05-10T07:59:43;7.60;;;4.88;;
12597;SDS011;6364;53.590;9.956;2023-05-10T08:02:09;12.73;;;5.00;;
12597;SDS011;6364;53.590;9.956;2023-05-10T08:04:35;8.02;;;5.13;;
12597;SDS011;6364;53.590;9.956;2023-05-10T08:07:00;5.82;;;5.18;;
12597;SDS011;6364;53.590;9.956;2023-05-10T08:09:25;9.15;;;4.60;;
12597;SDS011;6364;53.590;9.956;2023-05-10T08:11:51;8.88;;;5.40;;
12597;SDS011;6364;53.590;9.956;2023-05-10T08:14:16;10.43;;;5.10;;
12597;SDS011;6364;53.590;9.956;2023-05-10T08:16:41;12.10;;;5.00;;
12597;SDS011;6364;53.590;9.956;2023-05-10T08:19:07;9.98;;;5.40;;
12597;SDS011;6364;53.590;9.956;2023-05-10T08:21:32;12.00;;;5.07;;
12597;SDS011;6364;53.590;9.956;2023-05-10T08:23:58;11.35;;;5.00;;
12597;SDS011;6364;53.590;9.956;2023-05-10T08:26:23;9.40;;;4.97;;
12597;SDS011;6364;53.590;9.956;2023-05-10T08:28:48;7.57;;;5.40;;
12597;SDS011;6364;53.590;9.956;2023-05-10T08:31:14;9.70;;;5.20;;
12597;SDS011;6364;53.590;9.956;2023-05-10T08:33:39;8.65;;;5.82;;
12597;SDS011;6364;53.590;9.956;2023-05-10T08:36:05;7.18;;;5.40;;
12597;SDS011;6364;53.590;9.956;2023-05-10T08:38:30;10.93;;;5.97;;
12597;SDS011;6364;53.590;9.956;2023-05-10T08:40:55;10.07;;;5.40;;
12597;SDS011;6364;53.590;9.956;2023-05-10T08:43:26;10.15;;;5.25;;
12597;SDS011;6364;53.590;9.956;2023-05-10T08:45:53;7.90;;;5.97;;
12597;SDS011;6364;53.590;9.956;2023-05-10T08:48:19;9.43;;;5.05;;
12597;SDS011;6364;53.590;9.956;2023-05-10T08:50:45;10.68;;;6.03;;
12597;SDS011;6364;53.590;9.956;2023-05-10T08:53:12;8.32;;;5.32;;
12597;SDS011;6364;53.590;9.956;2023-05-10T08:55:38;9.20;;;5.68;;
12597;SDS011;6364;53.590;9.956;2023-05-10T08:58:05;10.05;;;6.07;;
12597;SDS011;6364;53.590;9.956;2023-05-10T09:00:31;10.75;;;6.30;;
12597;SDS011;6364;53.590;9.956;2023-05-10T09:02:57;7.38;;;5.47;;
12597;SDS011;6364;53.590;9.956;2023-05-10T09:05:23;7.85;;;5.72;;
12597;SDS011;6364;53.590;9.956;2023-05-10T09:07:49;8.88;;;5.78;;
12597;SDS011;6364;53.590;9.956;2023-05-10T09:10:14;14.27;;;5.68;;
12597;SDS011;6364;53.590;9.956;2023-05-10T09:12:40;14.00;;;5.85;;
12597;SDS011;6364;53.590;9.956;2023-05-10T09:15:06;11.38;;;5.97;;
12597;SDS011;6364;53.590;9.956;2023-05-10T09:17:32;10.07;;;5.50;;
12597;SDS011;6364;53.590;9.956;2023-05-10T09:19:59;7.43;;;5.20;;
12597;SDS011;6364;53.590;9.956;2023-05-10T09:22:25;9.93;;;6.20;;
12597;SDS011;6364;53.590;9.956;2023-05-10T09:25:03;9.32;;;6.30;;
12597;SDS011;6364;53.590;9.956;2023-05-10T09:27:39;7.18;;;6.05;;
12597;SDS011;6364;53.590;9.956;2023-05-10T09:30:05;8.23;;;6.25;;
12597;SDS011;6364;53.590;9.956;2023-05-10T09:32:38;14.65;;;6.38;;
12597;SDS011;6364;53.590;9.956;2023-05-10T09:35:10;12.82;;;6.97;;
12597;SDS011;6364;53.590;9.956;2023-05-10T09:37:39;11.35;;;6.47;;
12597;SDS011;6364;53.590;9.956;2023-05-10T09:40:11;13.50;;;6.40;;
12597;SDS011;6364;53.590;9.956;2023-05-10T09:42:53;9.75;;;6.70;;
12597;SDS011;6364;53.590;9.956;2023-05-10T09:45:23;10.15;;;6.72;;
12597;SDS011;6364;53.590;9.956;2023-05-10T09:47:50;11.00;;;7.25;;
12597;SDS011;6364;53.590;9.956;2023-05-10T09:50:15;11.63;;;6.80;;
12597;SDS011;6364;53.590;9.956;2023-05-10T09:55:13;12.38;;;6.72;;
12597;SDS011;6364;53.590;9.956;2023-05-10T09:57:39;9.45;;;7.90;;
12597;SDS011;6364;53.590;9.956;2023-05-10T10:00:05;8.45;;;7.55;;
12597;SDS011;6364;53.590;9.956;2023-05-10T10:02:31;10.60;;;7.95;;
12597;SDS011;6364;53.590;9.956;2023-05-10T10:04:57;10.82;;;8.20;;
12597;SDS011;6364;53.590;9.956;2023-05-10T10:07:23;11.43;;;8.15;;
12597;SDS011;6364;53.590;9.956;2023-05-10T10:09:50;10.57;;;8.48;;
12597;SDS011;6364;53.590;9.956;2023-05-10T10:12:15;14.10;;;8.13;;
12597;SDS011;6364;53.590;9.956;2023-05-10T10:14:41;12.50;;;7.53;;
12597;SDS011;6364;53.590;9.956;2023-05-10T10:17:06;11.15;;;8.30;;
12597;SDS011;6364;53.590;9.956;2023-05-10T10:19:33;13.35;;;9.05;;
12597;SDS011;6364;53.590;9.956;2023-05-10T10:21:59;9.68;;;8.48;;
12597;SDS011;6364;53.590;9.956;2023-05-10T10:24:25;17.45;;;8.80;;
12597;SDS011;6364;53.590;9.956;2023-05-10T10:26:50;13.50;;;8.60;;
12597;SDS011;6364;53.590;9.956;2023-05-10T10:34:36;13.57;;;9.73;;
12597;SDS011;6364;53.590;9.956;2023-05-10T10:37:04;12.77;;;9.60;;
12597;SDS011;6364;53.590;9.956;2023-05-10T10:39:30;23.35;;;10.68;;
12597;SDS011;6364;53.590;9.956;2023-05-10T10:41:55;13.77;;;10.18;;
12597;SDS011;6364;53.590;9.956;2023-05-10T10:47:03;17.67;;;10.43;;
12597;SDS011;6364;53.590;9.956;2023-05-10T10:49:44;14.32;;;10.98;;
12597;SDS011;6364;53.590;9.956;2023-05-10T10:52:26;15.05;;;11.20;;
12597;SDS011;6364;53.590;9.956;2023-05-10T10:57:25;13.55;;;11.00;;
12597;SDS011;6364;53.590;9.956;2023-05-10T10:59:51;17.17;;;12.00;;
12597;SDS011;6364;53.590;9.956;2023-05-10T11:02:42;17.88;;;10.73;;
12597;SDS011;6364;53.590;9.956;2023-05-10T11:07:56;13.05;;;10.93;;
12597;SDS011;6364;53.590;9.956;2023-05-10T11:10:23;15.48;;;11.45;;
12597;SDS011;6364;53.590;9.956;2023-05-10T11:13:01;15.13;;;11.35;;
12597;SDS011;6364;53.590;9.956;2023-05-10T11:15:35;14.50;;;11.93;;
12597;SDS011;6364;53.590;9.956;2023-05-10T11:18:23;21.35;;;12.82;;
12597;SDS011;6364;53.590;9.956;2023-05-10T11:20:49;17.65;;;11.63;;
12597;SDS011;6364;53.590;9.956;2023-05-10T11:23:16;13.77;;;11.43;;
12597;SDS011;6364;53.590;9.956;2023-05-10T11:25:43;12.98;;;11.27;;
12597;SDS011;6364;53.590;9.956;2023-05-10T11:28:09;15.15;;;11.77;;
12597;SDS011;6364;53.590;9.956;2023-05-10T11:30:35;14.27;;;11.82;;
12597;SDS011;6364;53.590;9.956;2023-05-10T11:33:02;16.77;;;12.18;;
12597;SDS011;6364;53.590;9.956;2023-05-10T11:35:27;14.95;;;12.10;;
12597;SDS011;6364;53.590;9.956;2023-05-10T11:37:52;14.25;;;12.05;;
12597;SDS011;6364;53.590;9.956;2023-05-10T11:40:18;14.57;;;12.38;;
12597;SDS011;6364;53.590;9.956;2023-05-10T11:42:44;16.85;;;11.73;;
12597;SDS011;6364;53.590;9.956;2023-05-10T11:45:10;18.20;;;12.93;;
12597;SDS011;6364;53.590;9.956;2023-05-10T11:47:35;16.30;;;11.98;;
12597;SDS011;6364;53.590;9.956;2023-05-10T11:50:01;16.05;;;11.82;;
12597;SDS011;6364;53.590;9.956;2023-05-10T11:52:27;14.95;;;11.98;;
12597;SDS011;6364;53.590;9.956;2023-05-10T11:54:53;17.63;;;11.30;;
12597;SDS011;6364;53.590;9.956;2023-05-10T11:57:19;16.58;;;12.73;;
12597;SDS011;6364;53.590;9.956;2023-05-10T11:59:46;16.90;;;13.60;;
12597;SDS011;6364;53.590;9.956;2023-05-10T12:02:13;18.33;;;13.55;;
12597;SDS011;6364;53.590;9.956;2023-05-10T12:04:38;19.35;;;14.35;;
12597;SDS011;6364;53.590;9.956;2023-05-10T12:07:04;15.30;;;13.02;;
12597;SDS011;6364;53.590;9.956;2023-05-10T12:09:30;17.25;;;12.55;;
12597;SDS011;6364;53.590;9.956;2023-05-10T12:11:55;15.45;;;11.90;;
12597;SDS011;6364;53.590;9.956;2023-05-10T12:14:23;18.80;;;11.88;;
12597;SDS011;6364;53.590;9.956;2023-05-10T12:16:49;17.48;;;12.93;;
12597;SDS011;6364;53.590;9.956;2023-05-10T12:19:18;16.55;;;13.10;;
12597;SDS011;6364;53.590;9.956;2023-05-10T12:21:44;17.80;;;13.90;;
12597;SDS011;6364;53.590;9.956;2023-05-10T12:24:10;11.13;;;9.85;;
12597;SDS011;6364;53.590;9.956;2023-05-10T12:26:35;10.55;;;9.40;;
12597;SDS011;6364;53.590;9.956;2023-05-10T12:29:17;12.88;;;10.40;;
12597;SDS011;6364;53.590;9.956;2023-05-10T12:31:50;13.50;;;10.65;;
12597;SDS011;6364;53.590;9.956;2023-05-10T12:34:26;15.57;;;10.30;;
12597;SDS011;6364;53.590;9.956;2023-05-10T12:36:52;13.68;;;10.05;;
12597;SDS011;6364;53.590;9.956;2023-05-10T12:39:18;16.15;;;11.32;;
12597;SDS011;6364;53.590;9.956;2023-05-10T12:41:43;15.50;;;12.20;;
12597;SDS011;6364;53.590;9.956;2023-05-10T12:44:09;12.38;;;10.85;;
12597;SDS011;6364;53.590;9.956;2023-05-10T12:46:34;14.75;;;11.48;;
12597;SDS011;6364;53.590;9.956;2023-05-10T12:48:59;15.95;;;11.88;;
12597;SDS011;6364;53.590;9.956;2023-05-10T12:51:24;14.75;;;12.88;;
12597;SDS011;6364;53.590;9.956;2023-05-10T12:53:50;14.95;;;12.77;;
12597;SDS011;6364;53.590;9.956;2023-05-10T12:56:15;15.85;;;12.23;;
12597;SDS011;6364;53.590;9.956;2023-05-10T12:58:40;14.35;;;12.13;;
12597;SDS011;6364;53.590;9.956;2023-05-10T13:01:06;19.92;;;13.45;;
12597;SDS011;6364;53.590;9.956;2023-05-10T13:03:31;16.02;;;12.82;;
12597;SDS011;6364;53.590;9.956;2023-05-10T13:05:57;13.88;;;12.10;;
12597;SDS011;6364;53.590;9.956;2023-05-10T13:08:22;12.00;;;10.80;;
12597;SDS011;6364;53.590;9.956;2023-05-10T13:10:47;14.30;;;11.07;;
12597;SDS011;6364;53.590;9.956;2023-05-10T13:13:13;11.68;;;10.48;;
12597;SDS011;6364;53.590;9.956;2023-05-10T13:15:39;12.93;;;10.60;;
12597;SDS011;6364;53.590;9.956;2023-05-10T13:18:04;14.25;;;11.20;;
12597;SDS011;6364;53.590;9.956;2023-05-10T13:20:29;14.77;;;11.75;;
12597;SDS011;6364;53.590;9.956;2023-05-10T13:22:55;13.98;;;11.57;;
12597;SDS011;6364;53.590;9.956;2023-05-10T13:25:20;15.40;;;10.90;;
12597;SDS011;6364;53.590;9.956;2023-05-10T13:27:45;13.82;;;10.07;;
12597;SDS011;6364;53.590;9.956;2023-05-10T13:30:11;14.25;;;11.02;;
12597;SDS011;6364;53.590;9.956;2023-05-10T13:32:36;14.80;;;10.57;;
12597;SDS011;6364;53.590;9.956;2023-05-10T13:35:02;14.63;;;10.43;;
12597;SDS011;6364;53.590;9.956;2023-05-10T13:37:28;16.23;;;9.65;;
12597;SDS011;6364;53.590;9.956;2023-05-10T13:39:54;9.93;;;8.35;;
12597;SDS011;6364;53.590;9.956;2023-05-10T13:42:19;9.98;;;8.68;;
12597;SDS011;6364;53.590;9.956;2023-05-10T13:44:46;9.57;;;8.60;;
12597;SDS011;6364;53.590;9.956;2023-05-10T13:47:11;10.73;;;9.05;;
12597;SDS011;6364;53.590;9.956;2023-05-10T13:49:37;11.27;;;8.95;;
12597;SDS011;6364;53.590;9.956;2023-05-10T13:52:02;10.10;;;9.02;;
12597;SDS011;6364;53.590;9.956;2023-05-10T13:54:31;10.57;;;8.95;;
12597;SDS011;6364;53.590;9.956;2023-05-10T13:56:57;10.90;;;9.35;;
12597;SDS011;6364;53.590;9.956;2023-05-10T13:59:24;9.77;;;8.68;;
12597;SDS011;6364;53.590;9.956;2023-05-10T14:01:49;10.45;;;9.35;;
12597;SDS011;6364;53.590;9.956;2023-05-10T14:04:14;11.07;;;9.75;;
12597;SDS011;6364;53.590;9.956;2023-05-10T14:06:40;13.82;;;10.52;;
12597;SDS011;6364;53.590;9.956;2023-05-10T14:09:05;12.15;;;10.10;;
12597;SDS011;6364;53.590;9.956;2023-05-10T14:11:30;11.40;;;10.13;;
12597;SDS011;6364;53.590;9.956;2023-05-10T14:13:56;12.10;;;10.68;;
12597;SDS011;6364;53.590;9.956;2023-05-10T14:16:22;11.50;;;10.27;;
12597;SDS011;6364;53.590;9.956;2023-05-10T14:18:47;13.18;;;11.02;;
12597;SDS011;6364;53.590;9.956;2023-05-10T14:21:12;10.45;;;9.07;;
12597;SDS011;6364;53.590;9.956;2023-05-10T14:23:38;10.40;;;9.27;;
12597;SDS011;6364;53.590;9.956;2023-05-10T14:26:03;10.05;;;8.98;;
12597;SDS011;6364;53.590;9.956;2023-05-10T14:28:29;10.15;;;8.93;;
12597;SDS011;6364;53.590;9.956;2023-05-10T14:30:54;11.38;;;8.73;;
12597;SDS011;6364;53.590;9.956;2023-05-10T14:33:20;11.68;;;8.48;;
12597;SDS011;6364;53.590;9.956;2023-05-10T14:35:46;12.20;;;9.52;;
12597;SDS011;6364;53.590;9.956;2023-05-10T14:38:11;9.23;;;8.30;;
12597;SDS011;6364;53.590;9.956;2023-05-10T14:40:37;10.38;;;9.25;;
12597;SDS011;6364;53.590;9.956;2023-05-10T14:43:02;10.73;;;9.32;;
12597;SDS011;6364;53.590;9.956;2023-05-10T14:45:28;12.25;;;8.45;;
12597;SDS011;6364;53.590;9.956;2023-05-10T14:47:53;12.40;;;8.80;;
12597;SDS011;6364;53.590;9.956;2023-05-10T14:50:18;10.90;;;9.23;;
12597;SDS011;6364;53.590;9.956;2023-05-10T14:52:44;9.48;;;8.48;;
12597;SDS011;6364;53.590;9.956;2023-05-10T14:55:09;9.40;;;8.32;;
12597;SDS011;6364;53.590;9.956;2023-05-10T14:57:35;10.52;;;7.88;;
12597;SDS011;6364;53.590;9.956;2023-05-10T15:00:00;9.10;;;8.20;;
12597;SDS011;6364;53.590;9.956;2023-05-10T15:02:26;8.43;;;7.50;;
12597;SDS011;6364;53.590;9.956;2023-05-10T15:04:51;8.73;;;7.85;;
12597;SDS011;6364;53.590;9.956;2023-05-10T15:07:16;11.35;;;7.55;;
12597;SDS011;6364;53.590;9.956;2023-05-10T15:09:43;8.40;;;7.50;;
12597;SDS011;6364;53.590;9.956;2023-05-10T15:12:09;8.90;;;7.93;;
12597;SDS011;6364;53.590;9.956;2023-05-10T15:14:34;9.40;;;8.38;;
12597;SDS011;6364;53.590;9.956;2023-05-10T15:17:01;8.90;;;7.72;;
12597;SDS011;6364;53.590;9.956;2023-05-10T15:19:26;10.18;;;7.78;;